Current Weather

Casa Grande Muni

Casa Grande, Arizona (KCGZ)

Report from: Friday, April 19, 2024 1:56 AM MST
Current time: Friday, April 19, 2024 2:37 AM MST

Nearby weather – Weather history – Daily summaries
Weather forecast

Temperature17.8°C (64.0°F)
Dew point0.0°C (32.0°F)
Winds Calm
Visibility10 mi. (16.1 km)
Clouds Sky clear
Altimeter29.88 in.Hg (1012 mB)
Relative humidity30 %
Density altitude518 ft. (158 m)
Sea-level pressure101.1 kPa (1011 mB, 29.84 in.Hg)
Remarks Fully automated report
System requires maintenance
Automated weather observing station with precipitation discriminator
Precipitation sensor not operating
Pressure falling more quickly
Flight conditions Visual Meteorological Conditions
Raw dataKCGZ 190856Z AUTO 00000KT 10SM CLR 18/00 A2988 RMK AO2 SLP105 6//// T01780000 58002 PNO $
An error has occurred. This application may no longer respond until reloaded. Reload 🗙